createdAt,value
2018-05-24T00:01:18.425Z,85.16
2018-05-24T00:04:22.433Z,85.08
2018-05-24T00:07:26.731Z,84.78
2018-05-24T00:10:32.219Z,85.38
2018-05-24T00:13:35.884Z,84.95
2018-05-24T00:16:39.302Z,85.10
2018-05-24T00:19:43.562Z,84.56
2018-05-24T00:22:47.055Z,84.55
2018-05-24T00:25:50.623Z,84.30
2018-05-24T00:28:54.282Z,84.29
2018-05-24T00:31:57.711Z,84.82
2018-05-24T00:35:01.327Z,85.17
2018-05-24T00:38:05.548Z,86.83
2018-05-24T00:41:08.908Z,85.79
2018-05-24T00:44:12.446Z,86.54
2018-05-24T00:47:15.789Z,87.71
2018-05-24T00:50:19.308Z,86.45
2018-05-24T00:53:22.786Z,85.76
2018-05-24T00:56:26.493Z,85.50
2018-05-24T00:59:29.917Z,85.15
2018-05-24T01:02:33.270Z,85.37
2018-05-24T01:05:36.607Z,86.97
2018-05-24T01:08:39.931Z,87.11
2018-05-24T01:11:43.193Z,87.39
2018-05-24T01:14:46.450Z,86.06
2018-05-24T01:17:49.718Z,85.51
2018-05-24T01:20:52.991Z,86.06
2018-05-24T01:23:56.256Z,85.79
2018-05-24T01:26:59.534Z,85.08
2018-05-24T01:30:02.794Z,84.81
2018-05-24T01:33:06.166Z,85.03
2018-05-24T01:36:10.200Z,85.13
2018-05-24T01:39:13.449Z,85.04
2018-05-24T01:42:16.709Z,84.67
2018-05-24T01:45:19.998Z,85.80
2018-05-24T01:48:23.263Z,85.89
2018-05-24T01:51:27.385Z,85.40
2018-05-24T01:54:31.405Z,85.47
2018-05-24T01:57:35.425Z,85.28
2018-05-24T02:00:38.677Z,85.53
2018-05-24T02:03:42.110Z,85.46
2018-05-24T02:06:46.133Z,85.66
2018-05-24T02:09:49.514Z,85.87
2018-05-24T02:12:52.866Z,86.11
2018-05-24T02:15:56.125Z,86.31
2018-05-24T02:18:59.422Z,86.27
2018-05-24T02:22:02.702Z,86.83
2018-05-24T02:25:06.738Z,85.62
2018-05-24T02:28:10.342Z,86.11
2018-05-24T02:31:13.610Z,85.84
2018-05-24T02:34:16.859Z,85.25
2018-05-24T02:37:20.118Z,85.02
2018-05-24T02:40:24.137Z,84.98
2018-05-24T02:43:28.252Z,84.70
2018-05-24T02:46:31.560Z,84.94
2018-05-24T02:49:35.667Z,85.07
2018-05-24T02:52:39.691Z,85.58
2018-05-24T02:55:43.723Z,85.27
2018-05-24T02:58:47.189Z,85.27
2018-05-24T03:01:51.317Z,85.48
2018-05-24T03:04:55.341Z,85.59
2018-05-24T03:07:58.637Z,85.56
2018-05-24T03:11:02.686Z,85.72
2018-05-24T03:14:05.947Z,86.05
2018-05-24T03:17:09.966Z,85.55
2018-05-24T03:20:13.219Z,85.94
2018-05-24T03:23:17.702Z,85.55
2018-05-24T03:26:20.984Z,85.66
2018-05-24T03:29:25.097Z,85.49
2018-05-24T03:32:29.153Z,85.27
2018-05-24T03:35:32.423Z,85.68
2018-05-24T03:38:35.706Z,85.11
2018-05-24T03:41:39.752Z,85.09
2018-05-24T03:44:43.008Z,85.79
2018-05-24T03:47:47.854Z,85.95
2018-05-24T03:50:51.888Z,85.53
2018-05-24T03:53:55.160Z,85.56
2018-05-24T03:56:59.283Z,86.14
2018-05-24T04:00:20.819Z,85.99
2018-05-24T04:07:01.795Z,86.30
2018-05-24T04:10:05.830Z,86.38
2018-05-24T04:13:09.090Z,85.96
2018-05-24T04:16:14.476Z,85.84
2018-05-24T04:19:17.808Z,85.53
2018-05-24T04:22:23.331Z,85.37
2018-05-24T04:25:26.617Z,85.99
2018-05-24T04:28:30.637Z,85.62
2018-05-24T04:31:34.013Z,84.89
2018-05-24T04:34:37.331Z,84.50
2018-05-24T04:37:40.633Z,84.99
2018-05-24T04:40:43.974Z,85.58
2018-05-24T04:43:47.266Z,85.60
2018-05-24T04:46:58.090Z,84.91
2018-05-24T04:50:02.230Z,84.25
2018-05-24T04:53:05.550Z,84.05
2018-05-24T04:56:09.700Z,83.64
2018-05-24T04:59:13.304Z,82.94
2018-05-24T05:02:16.605Z,84.24
2018-05-24T05:05:19.882Z,83.08
2018-05-24T05:08:23.155Z,82.24
2018-05-24T05:11:26.413Z,82.61
2018-05-24T05:14:30.537Z,82.53
2018-05-24T05:17:34.566Z,83.00
2018-05-24T05:20:37.840Z,82.16
2018-05-24T05:23:41.910Z,82.28
2018-05-24T05:26:45.230Z,82.48
2018-05-24T05:29:48.787Z,82.55
2018-05-24T05:32:53.045Z,82.25
2018-05-24T05:35:56.674Z,81.66
2018-05-24T05:38:59.988Z,81.62
2018-05-24T05:42:04.179Z,81.03
2018-05-24T05:45:07.552Z,82.02
2018-05-24T05:48:10.807Z,82.10
2018-05-24T05:51:14.161Z,83.79
2018-05-24T05:54:17.542Z,83.33
2018-05-24T05:57:20.805Z,83.56
2018-05-24T06:00:24.109Z,83.35
2018-05-24T06:03:27.475Z,83.31
2018-05-24T06:06:30.812Z,82.41
2018-05-24T06:09:35.211Z,82.65
2018-05-24T06:12:38.456Z,83.20
2018-05-24T06:15:42.622Z,82.56
2018-05-24T06:18:46.653Z,82.77
2018-05-24T06:21:49.914Z,82.50
2018-05-24T06:24:53.210Z,82.94
2018-05-24T06:27:56.475Z,82.61
2018-05-24T06:30:59.755Z,82.08
2018-05-24T06:34:03.330Z,82.81
2018-05-24T06:37:06.942Z,82.73
2018-05-24T06:40:10.287Z,83.28
2018-05-24T06:43:14.398Z,83.80
2018-05-24T06:46:17.739Z,83.19
2018-05-24T06:49:21.493Z,84.22
2018-05-24T06:52:24.789Z,84.02
2018-05-24T06:55:46.413Z,83.60
2018-05-24T06:58:52.930Z,83.27
2018-05-24T07:01:56.207Z,82.86
2018-05-24T07:04:59.458Z,83.54
2018-05-24T07:08:03.488Z,83.26
2018-05-24T07:11:06.807Z,82.70
2018-05-24T07:14:10.061Z,82.20
2018-05-24T07:17:13.346Z,81.97
2018-05-24T07:20:17.406Z,81.49
2018-05-24T07:23:20.687Z,81.48
2018-05-24T07:26:24.827Z,81.67
2018-05-24T07:29:28.121Z,82.31
2018-05-24T07:32:31.441Z,81.45
2018-05-24T07:35:34.705Z,82.85
2018-05-24T07:38:37.965Z,81.80
2018-05-24T07:41:41.230Z,82.29
2018-05-24T07:44:44.491Z,81.44
2018-05-24T07:47:47.745Z,82.21
2018-05-24T07:50:51.001Z,80.40
2018-05-24T07:53:54.283Z,80.74
2018-05-24T07:56:58.330Z,81.83
2018-05-24T08:00:01.592Z,80.64
2018-05-24T08:03:05.638Z,79.76
2018-05-24T08:06:08.997Z,78.58
2018-05-24T08:09:13.069Z,76.62
2018-05-24T08:12:16.442Z,77.40
2018-05-24T08:15:19.769Z,77.47
2018-05-24T08:18:23.053Z,78.75
2018-05-24T08:21:26.310Z,78.70
2018-05-24T08:24:30.430Z,79.35
2018-05-24T08:27:34.449Z,79.72
2018-05-24T08:30:37.760Z,78.85
2018-05-24T08:33:41.017Z,76.72
2018-05-24T08:36:44.275Z,76.35
2018-05-24T08:39:47.551Z,78.07
2018-05-24T08:42:50.813Z,77.22
2018-05-24T08:45:54.837Z,77.03
2018-05-24T08:48:58.879Z,77.37
2018-05-24T08:52:02.242Z,77.21
2018-05-24T08:55:06.262Z,76.47
2018-05-24T08:58:10.322Z,76.81
2018-05-24T09:01:13.775Z,77.07
2018-05-24T09:04:16.990Z,76.53
2018-05-24T09:07:21.212Z,75.45
2018-05-24T09:10:24.467Z,74.43
2018-05-24T09:13:27.772Z,73.86
2018-05-24T09:16:31.034Z,76.21
2018-05-24T09:19:34.304Z,76.62
2018-05-24T09:22:37.599Z,73.06
2018-05-24T09:25:40.863Z,73.23
2018-05-24T09:28:44.113Z,72.81
2018-05-24T09:31:47.384Z,69.35
2018-05-24T09:34:51.398Z,70.33
2018-05-24T09:37:54.695Z,74.09
2018-05-24T09:40:58.839Z,73.00
2018-05-24T09:44:02.082Z,70.12
2018-05-24T09:47:05.351Z,73.72
2018-05-24T09:50:08.676Z,74.71
2018-05-24T09:53:12.694Z,73.60
2018-05-24T09:56:15.977Z,71.35
2018-05-24T09:59:19.231Z,69.13
2018-05-24T10:02:22.516Z,69.82
2018-05-24T10:05:25.945Z,70.16
2018-05-24T10:08:29.212Z,66.50
2018-05-24T10:11:32.474Z,67.35
2018-05-24T10:14:36.502Z,68.70
2018-05-24T10:17:40.533Z,66.15
2018-05-24T10:20:44.562Z,68.03
2018-05-24T10:23:47.829Z,64.64
2018-05-24T10:26:51.960Z,66.07
2018-05-24T10:29:55.242Z,70.55
2018-05-24T10:32:59.276Z,67.21
2018-05-24T10:36:02.529Z,65.89
2018-05-24T10:39:06.482Z,66.21
2018-05-24T10:42:10.570Z,65.46
2018-05-24T10:45:13.882Z,66.41
2018-05-24T10:48:17.094Z,67.09
2018-05-24T10:51:20.437Z,64.92
2018-05-24T10:54:24.410Z,63.30
2018-05-24T10:57:28.451Z,62.43
2018-05-24T11:00:33.170Z,62.32
2018-05-24T11:03:36.439Z,62.52
2018-05-24T11:06:40.577Z,62.78
2018-05-24T11:09:43.835Z,62.43
2018-05-24T11:12:47.108Z,61.43
2018-05-24T11:15:51.190Z,60.78
2018-05-24T11:18:54.438Z,61.64
2018-05-24T11:21:57.879Z,61.20
2018-05-24T11:25:01.995Z,61.65
2018-05-24T11:28:05.300Z,60.49
2018-05-24T11:31:08.545Z,62.23
2018-05-24T11:34:11.883Z,64.10
2018-05-24T11:37:15.905Z,63.85
2018-05-24T11:40:19.158Z,60.96
2018-05-24T11:43:24.019Z,60.30
2018-05-24T11:46:27.190Z,63.89
2018-05-24T11:49:30.441Z,63.94
2018-05-24T11:52:33.718Z,60.78
2018-05-24T11:55:37.790Z,63.35
2018-05-24T11:58:41.133Z,62.30
2018-05-24T12:01:45.352Z,63.27
2018-05-24T12:04:48.655Z,61.39
2018-05-24T12:07:52.112Z,58.82
2018-05-24T12:10:55.442Z,61.03
2018-05-24T12:13:59.478Z,62.47
2018-05-24T12:17:02.773Z,60.62
2018-05-24T12:20:06.055Z,58.77
2018-05-24T12:23:10.095Z,59.34
2018-05-24T12:26:13.369Z,59.30
2018-05-24T12:29:16.950Z,59.90
2018-05-24T12:32:20.209Z,58.22
2018-05-24T12:35:23.675Z,59.38
2018-05-24T12:38:26.846Z,58.71
2018-05-24T12:41:30.215Z,62.79
2018-05-24T12:44:33.544Z,60.91
2018-05-24T12:47:37.706Z,59.42
2018-05-24T12:50:41.008Z,59.88
2018-05-24T12:53:44.906Z,60.67
2018-05-24T12:56:48.498Z,57.28
2018-05-24T12:59:52.621Z,57.43
2018-05-24T13:02:55.880Z,60.50
2018-05-24T13:05:59.163Z,63.46
2018-05-24T13:09:02.411Z,62.68
2018-05-24T13:12:05.664Z,60.86
2018-05-24T13:15:09.649Z,60.09
2018-05-24T13:18:13.076Z,59.07
2018-05-24T13:21:16.365Z,59.88
2018-05-24T13:24:19.622Z,59.08
2018-05-24T13:27:22.948Z,58.50
2018-05-24T13:30:26.191Z,59.59
2018-05-24T13:33:30.122Z,59.32
2018-05-24T13:36:33.445Z,58.36
2018-05-24T13:39:36.691Z,59.25
2018-05-24T13:42:39.953Z,60.30
2018-05-24T13:45:43.251Z,58.07
2018-05-24T13:48:46.501Z,59.54
2018-05-24T13:51:50.545Z,58.65
2018-05-24T13:54:53.847Z,58.78
2018-05-24T13:57:57.218Z,58.57
2018-05-24T14:01:00.901Z,60.02
2018-05-24T14:04:07.696Z,60.44
2018-05-24T14:07:12.071Z,60.17
2018-05-24T14:13:29.598Z,61.85
2018-05-24T14:16:32.922Z,60.63
2018-05-24T14:19:38.552Z,61.46
2018-05-24T14:22:41.942Z,60.53
2018-05-24T14:25:45.248Z,61.24
2018-05-24T14:28:48.567Z,60.80
2018-05-24T14:31:51.940Z,61.01
2018-05-24T14:34:55.259Z,58.90
2018-05-24T14:37:58.619Z,56.97
2018-05-24T14:41:02.889Z,57.48
2018-05-24T14:44:06.212Z,57.22
2018-05-24T14:47:09.525Z,56.75
2018-05-24T14:50:13.581Z,54.99
2018-05-24T14:53:16.851Z,55.80
2018-05-24T14:56:20.905Z,57.12
2018-05-24T14:59:24.497Z,59.01
2018-05-24T15:02:27.807Z,57.30
2018-05-24T15:05:32.422Z,57.12
2018-05-24T15:08:35.716Z,54.90
2018-05-24T15:11:39.010Z,54.84
2018-05-24T15:14:42.263Z,55.48
2018-05-24T15:17:45.515Z,55.26
2018-05-24T15:20:48.777Z,53.94
2018-05-24T15:23:52.894Z,53.72
2018-05-24T15:26:56.179Z,55.43
2018-05-24T15:29:59.438Z,52.81
2018-05-24T15:33:02.745Z,53.06
2018-05-24T15:36:07.710Z,53.46
2018-05-24T15:39:11.743Z,53.48
2018-05-24T15:42:15.780Z,52.54
2018-05-24T15:45:19.025Z,52.37
2018-05-24T15:48:22.297Z,52.86
2018-05-24T15:51:25.567Z,53.46
2018-05-24T15:54:28.892Z,54.66
2018-05-24T15:57:32.153Z,54.48
2018-05-24T16:00:35.412Z,56.67
2018-05-24T16:03:38.732Z,57.01
2018-05-24T16:06:42.782Z,57.85
2018-05-24T16:09:46.043Z,57.51
2018-05-24T16:12:50.069Z,58.04
2018-05-24T16:15:53.326Z,57.87
2018-05-24T16:18:56.601Z,58.65
2018-05-24T16:21:59.877Z,60.35
2018-05-24T16:25:03.158Z,61.72
2018-05-24T16:28:06.428Z,63.61
2018-05-24T16:31:09.677Z,63.41
2018-05-24T16:34:12.939Z,64.75
2018-05-24T16:37:16.965Z,65.86
2018-05-24T16:40:21.017Z,66.02
2018-05-24T16:43:24.374Z,69.13
2018-05-24T16:46:28.401Z,69.20
2018-05-24T16:49:31.670Z,72.33
2018-05-24T16:52:34.921Z,71.16
2018-05-24T16:55:38.193Z,72.46
2018-05-24T16:58:41.449Z,72.67
2018-05-24T17:01:44.716Z,74.87
2018-05-24T17:04:47.967Z,76.23
2018-05-24T17:07:51.255Z,77.09
2018-05-24T17:10:55.283Z,78.37
2018-05-24T17:13:59.412Z,78.35
2018-05-24T17:17:02.683Z,79.23
2018-05-24T17:20:05.938Z,78.06
2018-05-24T17:23:09.303Z,77.67
2018-05-24T17:26:13.638Z,77.28
2018-05-24T17:29:16.891Z,77.00
2018-05-24T17:32:20.258Z,77.31
2018-05-24T17:35:24.437Z,77.77
2018-05-24T17:38:27.739Z,80.56
2018-05-24T17:41:30.997Z,79.56
2018-05-24T17:44:34.253Z,80.09
2018-05-24T17:47:37.515Z,79.55
2018-05-24T17:50:41.546Z,79.84
2018-05-24T17:53:44.809Z,80.06
2018-05-24T17:56:48.147Z,79.97
2018-05-24T17:59:51.398Z,79.63
2018-05-24T18:02:54.662Z,80.12
2018-05-24T18:05:58.045Z,80.11
2018-05-24T18:09:01.341Z,79.94
2018-05-24T18:12:04.610Z,79.77
2018-05-24T18:15:08.649Z,80.18
2018-05-24T18:18:11.918Z,80.63
2018-05-24T18:21:15.980Z,80.87
2018-05-24T18:24:19.212Z,81.75
2018-05-24T18:27:22.524Z,82.17
2018-05-24T18:30:25.850Z,83.28
2018-05-24T18:33:29.154Z,82.78
2018-05-24T18:36:32.463Z,83.50
2018-05-24T18:39:35.718Z,84.55
2018-05-24T18:42:39.326Z,85.87
2018-05-24T18:45:42.546Z,84.68
2018-05-24T18:48:46.569Z,84.02
2018-05-24T18:51:49.830Z,84.06
2018-05-24T18:54:53.256Z,83.92
2018-05-24T18:57:57.375Z,83.66
2018-05-24T19:01:00.679Z,83.77
2018-05-24T19:04:04.067Z,83.61
2018-05-24T19:07:08.103Z,83.94
2018-05-24T19:10:11.381Z,83.40
2018-05-24T19:13:14.642Z,83.88
2018-05-24T19:16:17.974Z,84.49
2018-05-24T19:19:21.370Z,84.60
2018-05-24T19:22:25.389Z,86.20
2018-05-24T19:25:29.465Z,85.84
2018-05-24T19:28:32.816Z,86.02
2018-05-24T19:31:36.069Z,86.10
2018-05-24T19:34:39.381Z,85.30
2018-05-24T19:37:42.622Z,85.06
2018-05-24T19:40:45.901Z,85.33
2018-05-24T19:43:49.246Z,86.22
2018-05-24T19:46:52.486Z,85.45
2018-05-24T19:49:56.511Z,85.15
2018-05-24T19:52:59.763Z,85.39
2018-05-24T19:56:03.093Z,85.87
2018-05-24T19:59:07.526Z,86.91
2018-05-24T20:02:10.823Z,87.83
2018-05-24T20:05:14.837Z,81.45
2018-05-24T20:08:18.117Z,76.65
2018-05-24T20:11:21.498Z,76.88
2018-05-24T20:14:24.764Z,72.65
2018-05-24T20:17:28.058Z,72.47
2018-05-24T20:20:32.567Z,73.68
2018-05-24T20:23:35.821Z,75.44
2018-05-24T20:26:39.093Z,76.39
2018-05-24T20:29:42.351Z,78.70
2018-05-24T20:32:45.627Z,78.78
2018-05-24T20:35:48.903Z,78.73
2018-05-24T20:38:52.168Z,80.09
2018-05-24T20:41:55.418Z,79.75
2018-05-24T20:44:59.429Z,79.59
2018-05-24T20:48:03.451Z,78.84
2018-05-24T20:51:07.478Z,80.64
2018-05-24T20:54:10.746Z,79.00
2018-05-24T20:57:14.032Z,79.17
2018-05-24T21:00:18.063Z,80.13
2018-05-24T21:03:21.316Z,80.03
2018-05-24T21:06:24.577Z,81.54
2018-05-24T21:09:27.842Z,82.17
2018-05-24T21:12:31.891Z,84.42
2018-05-24T21:15:35.973Z,83.71
2018-05-24T21:18:39.292Z,83.20
2018-05-24T21:21:46.033Z,83.84
2018-05-24T21:24:49.965Z,83.40
2018-05-24T21:27:53.274Z,83.75
2018-05-24T21:30:59.170Z,83.31
2018-05-24T21:34:02.858Z,83.91
2018-05-24T21:37:06.894Z,83.98
2018-05-24T21:40:11.265Z,84.25
2018-05-24T21:43:14.564Z,84.43
2018-05-24T21:46:19.125Z,83.58
2018-05-24T21:49:22.398Z,83.22
2018-05-24T21:52:25.712Z,83.26
2018-05-24T21:55:29.624Z,83.05
2018-05-24T21:58:34.255Z,83.40
2018-05-24T22:01:39.344Z,83.42
2018-05-24T22:04:42.598Z,83.58
2018-05-24T22:07:45.852Z,83.53
2018-05-24T22:10:49.137Z,83.82
2018-05-24T22:13:52.384Z,83.51
2018-05-24T22:16:55.686Z,83.47
2018-05-24T22:19:59.018Z,83.54
2018-05-24T22:23:03.033Z,84.74
2018-05-24T22:26:06.295Z,84.54
2018-05-24T22:29:09.547Z,84.83
2018-05-24T22:32:13.093Z,84.75
2018-05-24T22:35:16.350Z,85.55
2018-05-24T22:38:19.606Z,85.32
2018-05-24T22:41:23.731Z,85.26
2018-05-24T22:44:27.753Z,84.83
2018-05-24T22:47:31.003Z,84.50
2018-05-24T22:50:34.473Z,84.57
2018-05-24T22:53:37.762Z,84.75
2018-05-24T22:56:41.048Z,84.54
2018-05-24T22:59:44.360Z,84.79
2018-05-24T23:02:48.025Z,84.40
2018-05-24T23:05:52.093Z,84.65
2018-05-24T23:08:55.345Z,84.46
2018-05-24T23:11:59.505Z,84.53
2018-05-24T23:15:02.765Z,84.56
2018-05-24T23:18:06.786Z,84.47
2018-05-24T23:21:10.114Z,85.32
2018-05-24T23:24:13.362Z,84.12
2018-05-24T23:27:17.395Z,84.29
2018-05-24T23:30:20.650Z,84.53
2018-05-24T23:33:23.943Z,84.31
2018-05-24T23:36:27.193Z,84.41
2018-05-24T23:39:30.441Z,84.52
2018-05-24T23:42:33.704Z,84.92
2018-05-24T23:45:37.073Z,85.29
2018-05-24T23:48:41.096Z,84.94
2018-05-24T23:51:44.349Z,84.93
2018-05-24T23:54:47.631Z,84.84
2018-05-24T23:57:50.903Z,85.10
